createdAt,value
2019-05-07T00:01:27.206Z,13.58
2019-05-07T00:03:03.275Z,13.53
2019-05-07T00:04:38.125Z,11.73
2019-05-07T00:06:12.509Z,13.28
2019-05-07T00:07:47.141Z,12.13
2019-05-07T00:09:23.269Z,14.93
2019-05-07T00:11:02.124Z,12.15
2019-05-07T00:12:35.933Z,13.50
2019-05-07T00:14:12.609Z,12.90
2019-05-07T00:15:46.884Z,15.80
2019-05-07T00:17:22.853Z,14.50
2019-05-07T00:18:57.454Z,13.18
2019-05-07T00:20:32.734Z,13.30
2019-05-07T00:22:07.693Z,14.58
2019-05-07T00:23:43.254Z,11.95
2019-05-07T00:25:17.972Z,14.80
2019-05-07T00:26:53.226Z,17.17
2019-05-07T00:28:27.790Z,14.60
2019-05-07T00:30:02.997Z,17.50
2019-05-07T00:31:38.062Z,17.37
2019-05-07T00:33:13.160Z,15.23
2019-05-07T00:34:54.147Z,19.90
2019-05-07T00:36:39.457Z,16.73
2019-05-07T00:38:14.826Z,15.35
2019-05-07T00:40:02.571Z,17.82
2019-05-07T00:41:42.799Z,17.23
2019-05-07T00:43:22.947Z,16.17
2019-05-07T00:45:16.348Z,16.48
2019-05-07T00:46:36.425Z,13.40
2019-05-07T00:48:12.640Z,13.38
2019-05-07T00:49:46.870Z,13.28
2019-05-07T00:51:25.326Z,11.40
2019-05-07T00:53:02.029Z,16.32
2019-05-07T00:54:36.083Z,12.88
2019-05-07T00:56:12.336Z,17.60
2019-05-07T00:57:46.937Z,12.35
2019-05-07T00:59:22.603Z,14.05
2019-05-07T01:00:57.516Z,16.12
2019-05-07T01:02:32.480Z,11.60
2019-05-07T01:04:07.255Z,14.47
2019-05-07T01:05:43.177Z,15.65
2019-05-07T01:07:17.850Z,14.50
2019-05-07T01:08:52.599Z,13.78
2019-05-07T01:10:27.057Z,14.23
2019-05-07T01:12:03.168Z,12.58
2019-05-07T01:13:37.984Z,13.43
2019-05-07T01:15:12.929Z,11.68
2019-05-07T01:16:47.376Z,11.70
2019-05-07T01:18:23.237Z,11.60
2019-05-07T01:19:57.951Z,12.85
2019-05-07T01:21:32.654Z,16.55
2019-05-07T01:23:07.378Z,14.00
2019-05-07T01:24:42.961Z,13.08
2019-05-07T01:26:17.759Z,16.30
2019-05-07T01:27:53.310Z,14.00
2019-05-07T01:29:28.126Z,15.98
2019-05-07T01:31:02.456Z,16.50
2019-05-07T01:32:43.597Z,16.20
2019-05-07T01:34:27.746Z,17.57
2019-05-07T01:36:19.459Z,17.12
2019-05-07T01:37:53.814Z,17.42
2019-05-07T01:39:28.162Z,15.90
2019-05-07T01:41:02.932Z,17.98
2019-05-07T01:42:37.630Z,16.32
2019-05-07T01:44:12.808Z,16.27
2019-05-07T01:45:49.734Z,15.53
2019-05-07T01:47:23.918Z,15.40
2019-05-07T01:48:58.378Z,17.85
2019-05-07T01:50:32.808Z,12.30
2019-05-07T01:52:07.249Z,17.25
2019-05-07T01:53:42.999Z,15.53
2019-05-07T01:55:17.653Z,16.57
2019-05-07T01:56:52.257Z,12.82
2019-05-07T01:58:26.730Z,15.98
2019-05-07T02:00:02.653Z,16.82
2019-05-07T02:01:37.201Z,17.23
2019-05-07T02:03:23.110Z,13.28
2019-05-07T02:05:04.233Z,13.60
2019-05-07T02:07:02.649Z,15.35
2019-05-07T02:08:42.964Z,15.03
2019-05-07T02:10:27.357Z,13.95
2019-05-07T02:12:15.908Z,14.83
2019-05-07T02:13:50.281Z,14.93
2019-05-07T02:15:24.701Z,15.05
2019-05-07T02:16:59.095Z,18.48
2019-05-07T02:18:33.457Z,17.25
2019-05-07T02:20:07.960Z,16.32
2019-05-07T02:21:42.537Z,18.27
2019-05-07T02:23:17.027Z,18.00
2019-05-07T02:24:52.409Z,17.27
2019-05-07T02:26:26.921Z,17.73
2019-05-07T02:28:02.163Z,17.27
2019-05-07T02:29:38.245Z,16.93
2019-05-07T02:31:14.929Z,14.10
2019-05-07T02:32:49.253Z,15.88
2019-05-07T02:34:23.679Z,12.85
2019-05-07T02:35:58.322Z,16.20
2019-05-07T02:37:51.057Z,13.85
2019-05-07T02:39:33.826Z,16.52
2019-05-07T02:41:14.105Z,17.90
2019-05-07T02:42:48.087Z,14.33
2019-05-07T02:44:23.247Z,16.95
2019-05-07T02:46:26.459Z,13.62
2019-05-07T02:47:52.462Z,14.80
2019-05-07T02:49:45.269Z,16.07
2019-05-07T02:51:27.910Z,19.07
2019-05-07T02:53:18.753Z,18.20
2019-05-07T02:55:14.153Z,18.15
2019-05-07T02:56:48.510Z,17.30
2019-05-07T02:58:23.966Z,17.20
2019-05-07T02:59:58.750Z,16.00
2019-05-07T03:01:33.803Z,18.87
2019-05-07T03:03:08.427Z,16.25
2019-05-07T03:04:43.539Z,18.15
2019-05-07T03:06:18.201Z,15.60
2019-05-07T03:07:53.478Z,15.85
2019-05-07T03:09:28.611Z,15.25
2019-05-07T03:11:03.621Z,15.35
2019-05-07T03:12:38.499Z,16.45
2019-05-07T03:14:13.965Z,15.65
2019-05-07T03:15:48.765Z,15.20
2019-05-07T03:17:24.504Z,17.55
2019-05-07T03:18:59.436Z,15.78
2019-05-07T03:20:43.559Z,15.55
2019-05-07T03:22:17.903Z,19.85
2019-05-07T03:23:59.111Z,15.53
2019-05-07T03:25:54.251Z,16.57
2019-05-07T03:27:28.700Z,15.58
2019-05-07T03:29:06.156Z,19.50
2019-05-07T03:30:57.010Z,14.18
2019-05-07T03:32:38.712Z,18.42
2019-05-07T03:34:25.119Z,17.82
2019-05-07T03:35:57.256Z,16.17
2019-05-07T03:37:35.908Z,14.10
2019-05-07T03:39:08.948Z,18.50
2019-05-07T03:40:44.777Z,19.75
2019-05-07T03:42:19.518Z,15.88
2019-05-07T03:43:53.956Z,16.87
2019-05-07T03:45:43.479Z,18.32
2019-05-07T03:47:37.070Z,18.67
2019-05-07T03:49:27.164Z,17.42
2019-05-07T03:51:03.677Z,21.87
2019-05-07T03:52:38.637Z,20.10
2019-05-07T03:54:14.509Z,16.32
2019-05-07T03:55:49.019Z,17.20
2019-05-07T03:57:23.971Z,20.23
2019-05-07T03:58:58.867Z,21.20
2019-05-07T04:00:33.555Z,18.30
2019-05-07T04:02:08.401Z,20.20
2019-05-07T04:03:44.755Z,19.15
2019-05-07T04:05:19.495Z,18.90
2019-05-07T04:06:53.936Z,21.97
2019-05-07T04:08:28.368Z,19.37
2019-05-07T04:10:04.377Z,21.23
2019-05-07T04:11:38.895Z,17.73
2019-05-07T04:13:13.834Z,20.75
2019-05-07T04:14:48.550Z,22.58
2019-05-07T04:16:24.026Z,19.92
2019-05-07T04:17:59.090Z,25.75
2019-05-07T04:19:33.525Z,18.12
2019-05-07T04:21:07.926Z,21.27
2019-05-07T04:22:43.332Z,20.70
2019-05-07T04:24:27.093Z,21.87
2019-05-07T04:26:17.962Z,19.25
2019-05-07T04:27:59.393Z,19.27
2019-05-07T04:29:35.038Z,19.85
2019-05-07T04:31:10.043Z,20.05
2019-05-07T04:32:48.666Z,19.42
2019-05-07T04:34:44.464Z,15.50
2019-05-07T04:36:27.564Z,17.23
2019-05-07T04:38:06.338Z,16.73
2019-05-07T04:39:42.313Z,17.00
2019-05-07T04:41:16.018Z,16.77
2019-05-07T04:42:53.567Z,16.32
2019-05-07T04:44:26.914Z,16.25
2019-05-07T04:46:03.267Z,14.47
2019-05-07T04:47:46.306Z,15.78
2019-05-07T04:49:15.317Z,14.65
2019-05-07T04:50:54.154Z,14.53
2019-05-07T04:52:33.996Z,13.88
2019-05-07T04:54:08.843Z,14.75
2019-05-07T04:55:43.611Z,16.32
2019-05-07T04:57:27.461Z,13.10
2019-05-07T04:59:03.565Z,17.27
2019-05-07T05:00:39.079Z,11.33
2019-05-07T05:02:18.783Z,13.72
2019-05-07T05:03:54.224Z,12.40
2019-05-07T05:05:29.174Z,11.00
2019-05-07T05:07:03.954Z,15.78
2019-05-07T05:08:38.749Z,16.42
2019-05-07T05:10:14.720Z,16.65
2019-05-07T05:11:49.842Z,17.27
2019-05-07T05:13:25.289Z,17.70
2019-05-07T05:15:02.017Z,19.05
2019-05-07T05:16:36.895Z,19.10
2019-05-07T05:18:12.699Z,16.00
2019-05-07T05:19:47.776Z,17.12
2019-05-07T05:21:32.273Z,18.45
2019-05-07T05:23:17.373Z,16.80
2019-05-07T05:25:11.966Z,18.48
2019-05-07T05:26:46.489Z,19.60
2019-05-07T05:28:21.849Z,18.65
2019-05-07T05:29:57.154Z,15.28
2019-05-07T05:31:33.039Z,15.28
2019-05-07T05:33:08.022Z,17.10
2019-05-07T05:34:42.786Z,14.55
2019-05-07T05:36:17.992Z,16.32
2019-05-07T05:37:52.757Z,15.32
2019-05-07T05:39:27.544Z,15.28
2019-05-07T05:41:02.856Z,15.05
2019-05-07T05:42:43.609Z,19.42
2019-05-07T05:44:25.986Z,18.35
2019-05-07T05:46:02.750Z,15.05
2019-05-07T05:47:37.320Z,15.05
2019-05-07T05:49:12.154Z,14.30
2019-05-07T05:50:53.772Z,13.15
2019-05-07T05:52:42.467Z,14.07
2019-05-07T05:54:36.425Z,15.63
2019-05-07T05:56:19.154Z,17.75
2019-05-07T05:58:02.695Z,12.20
2019-05-07T05:59:51.227Z,12.68
2019-05-07T06:01:39.344Z,15.70
2019-05-07T06:03:32.347Z,15.13
2019-05-07T06:05:35.679Z,15.30
2019-05-07T06:07:16.795Z,12.25
2019-05-07T06:09:13.428Z,12.98
2019-05-07T06:11:11.886Z,13.50
2019-05-07T06:12:52.248Z,12.80
2019-05-07T06:14:42.300Z,12.33
2019-05-07T06:16:18.929Z,13.45
2019-05-07T06:18:02.735Z,12.25
2019-05-07T06:19:42.911Z,13.90
2019-05-07T06:21:24.296Z,13.00
2019-05-07T06:23:18.361Z,13.80
2019-05-07T06:24:59.154Z,15.45
2019-05-07T06:26:33.604Z,11.08
2019-05-07T06:28:08.474Z,11.75
2019-05-07T06:29:43.225Z,12.03
2019-05-07T06:31:18.020Z,10.30
2019-05-07T06:32:52.803Z,15.25
2019-05-07T06:34:27.584Z,13.93
2019-05-07T06:36:02.912Z,11.00
2019-05-07T06:37:38.384Z,11.48
2019-05-07T06:39:22.625Z,13.62
2019-05-07T06:41:05.627Z,12.88
2019-05-07T06:43:03.218Z,10.60
2019-05-07T06:44:38.043Z,9.40
2019-05-07T06:46:13.081Z,9.57
2019-05-07T06:47:47.950Z,11.88
2019-05-07T06:49:22.737Z,11.25
2019-05-07T06:50:57.249Z,10.43
2019-05-07T06:52:32.114Z,9.57
2019-05-07T06:54:07.089Z,9.27
2019-05-07T06:55:42.848Z,11.83
2019-05-07T06:57:17.669Z,10.03
2019-05-07T06:59:02.326Z,11.33
2019-05-07T07:00:54.927Z,12.87
2019-05-07T07:02:43.245Z,10.33
2019-05-07T07:04:42.370Z,12.47
2019-05-07T07:06:23.064Z,11.27
2019-05-07T07:08:02.387Z,8.60
2019-05-07T07:09:59.930Z,9.83
2019-05-07T07:11:39.457Z,11.37
2019-05-07T07:13:14.421Z,10.63
2019-05-07T07:14:52.341Z,11.93
2019-05-07T07:16:26.725Z,10.10
2019-05-07T07:18:03.153Z,11.60
2019-05-07T07:19:37.870Z,13.47
2019-05-07T07:21:12.636Z,11.20
2019-05-07T07:22:47.061Z,11.03
2019-05-07T07:24:22.169Z,10.47
2019-05-07T07:25:57.070Z,9.80
2019-05-07T07:27:32.201Z,10.43
2019-05-07T07:29:08.380Z,10.77
2019-05-07T07:30:56.025Z,10.00
2019-05-07T07:32:36.546Z,10.40
2019-05-07T07:34:12.995Z,11.13
2019-05-07T07:35:46.985Z,12.20
2019-05-07T07:37:28.038Z,11.10
2019-05-07T07:39:04.452Z,10.60
2019-05-07T07:40:45.510Z,15.53
2019-05-07T07:42:22.825Z,10.53
2019-05-07T07:43:57.163Z,12.70
2019-05-07T07:45:32.511Z,13.40
2019-05-07T07:47:07.089Z,12.93
2019-05-07T07:48:43.502Z,12.63
2019-05-07T07:50:18.996Z,13.17
2019-05-07T07:51:53.354Z,13.70
2019-05-07T07:53:28.109Z,14.43
2019-05-07T07:55:02.893Z,14.17
2019-05-07T07:56:52.252Z,14.80
2019-05-07T07:58:34.963Z,13.03
2019-05-07T08:00:30.065Z,14.63
2019-05-07T08:02:13.144Z,12.60
2019-05-07T08:03:59.419Z,13.30
2019-05-07T08:05:34.185Z,13.67
2019-05-07T08:07:09.044Z,13.00
2019-05-07T08:08:44.172Z,13.63
2019-05-07T08:10:19.398Z,16.97
2019-05-07T08:11:54.309Z,12.43
2019-05-07T08:13:28.749Z,13.50
2019-05-07T08:15:14.550Z,13.33
2019-05-07T08:16:39.730Z,15.30
2019-05-07T08:18:14.378Z,15.93
2019-05-07T08:19:48.766Z,14.00
2019-05-07T08:21:23.245Z,13.77
2019-05-07T08:22:58.003Z,15.80
2019-05-07T08:24:32.423Z,13.97
2019-05-07T08:26:07.397Z,14.90
2019-05-07T08:27:42.068Z,16.73
2019-05-07T08:29:16.593Z,14.17
2019-05-07T08:30:58.284Z,17.30
2019-05-07T08:32:46.255Z,14.87
2019-05-07T08:34:28.358Z,14.60
2019-05-07T08:36:16.749Z,16.43
2019-05-07T08:37:51.832Z,14.93
2019-05-07T08:39:26.674Z,15.77
2019-05-07T08:41:02.736Z,18.73
2019-05-07T08:42:37.168Z,17.80
2019-05-07T08:44:15.826Z,15.70
2019-05-07T08:46:12.447Z,17.37
2019-05-07T08:47:49.754Z,17.50
2019-05-07T08:49:36.197Z,20.73
2019-05-07T08:51:02.549Z,19.57
2019-05-07T08:52:37.112Z,17.17
2019-05-07T08:54:12.344Z,18.47
2019-05-07T08:55:47.259Z,18.23
2019-05-07T08:57:22.740Z,19.27
2019-05-07T08:58:57.458Z,18.00
2019-05-07T09:00:32.566Z,19.23
2019-05-07T09:02:07.575Z,17.27
2019-05-07T09:03:45.375Z,17.27
2019-05-07T09:05:21.964Z,18.33
2019-05-07T09:06:55.970Z,18.13
2019-05-07T09:08:39.386Z,16.47
2019-05-07T09:10:15.020Z,17.70
2019-05-07T09:11:49.507Z,17.50
2019-05-07T09:13:24.673Z,20.23
2019-05-07T09:14:59.446Z,16.97
2019-05-07T09:16:36.070Z,17.00
2019-05-07T09:18:12.381Z,18.93
2019-05-07T09:20:09.328Z,19.30
2019-05-07T09:21:45.208Z,16.00
2019-05-07T09:23:22.844Z,18.63
2019-05-07T09:25:25.331Z,21.37
2019-05-07T09:27:34.095Z,20.97
2019-05-07T09:29:33.733Z,22.23
2019-05-07T09:31:15.598Z,19.10
2019-05-07T09:32:56.889Z,19.77
2019-05-07T09:34:33.974Z,19.90
2019-05-07T09:36:14.362Z,20.03
2019-05-07T09:37:48.724Z,20.73
2019-05-07T09:39:23.867Z,20.63
2019-05-07T09:40:59.029Z,23.23
2019-05-07T09:42:34.471Z,21.20
2019-05-07T09:44:09.296Z,22.67
2019-05-07T09:45:44.323Z,23.60
2019-05-07T09:47:19.266Z,23.53
2019-05-07T09:48:54.114Z,23.07
2019-05-07T09:50:29.286Z,23.70
2019-05-07T09:52:12.299Z,22.17
2019-05-07T09:53:47.163Z,20.17
2019-05-07T09:55:23.375Z,20.23
2019-05-07T09:56:58.110Z,21.43
2019-05-07T09:58:38.790Z,20.60
2019-05-07T10:00:12.319Z,23.07
2019-05-07T10:01:46.929Z,22.33
2019-05-07T10:03:22.781Z,27.60
2019-05-07T10:04:57.357Z,32.77
2019-05-07T10:06:32.152Z,29.17
2019-05-07T10:08:07.127Z,30.33
2019-05-07T10:09:42.699Z,27.87
2019-05-07T10:11:25.477Z,28.63
2019-05-07T10:13:19.690Z,27.87
2019-05-07T10:14:54.107Z,29.37
2019-05-07T10:16:46.665Z,29.77
2019-05-07T10:18:22.880Z,28.57
2019-05-07T10:19:57.518Z,32.70
2019-05-07T10:21:32.298Z,28.37
2019-05-07T10:23:09.164Z,31.47
2019-05-07T10:24:43.554Z,33.13
2019-05-07T10:26:18.475Z,28.50
2019-05-07T10:27:53.388Z,29.17
2019-05-07T10:29:28.180Z,29.57
2019-05-07T10:31:03.171Z,27.90
2019-05-07T10:32:37.683Z,28.83
2019-05-07T10:34:12.485Z,28.73
2019-05-07T10:35:47.147Z,28.43
2019-05-07T10:37:21.694Z,24.70
2019-05-07T10:38:56.240Z,27.83
2019-05-07T10:40:32.577Z,27.07
2019-05-07T10:42:26.796Z,25.13
2019-05-07T10:44:02.525Z,29.50
2019-05-07T10:45:47.626Z,26.67
2019-05-07T10:47:32.873Z,26.27
2019-05-07T10:49:32.289Z,26.17
2019-05-07T10:51:06.674Z,25.63
2019-05-07T10:52:42.533Z,28.30
2019-05-07T10:54:17.560Z,30.07
2019-05-07T10:55:51.951Z,27.20
2019-05-07T10:57:26.313Z,26.57
2019-05-07T10:59:02.815Z,23.37
2019-05-07T11:00:37.194Z,24.73
2019-05-07T11:02:22.464Z,22.50
2019-05-07T11:03:56.974Z,23.33
2019-05-07T11:05:32.686Z,24.43
2019-05-07T11:07:07.594Z,25.17
2019-05-07T11:08:42.865Z,25.00
2019-05-07T11:10:17.473Z,24.13
2019-05-07T11:11:52.305Z,25.43
2019-05-07T11:13:26.759Z,25.13
2019-05-07T11:15:02.253Z,27.17
2019-05-07T11:16:44.474Z,27.73
2019-05-07T11:18:32.303Z,30.90
2019-05-07T11:20:07.142Z,26.53
2019-05-07T11:21:41.887Z,23.83
2019-05-07T11:23:16.943Z,24.67
2019-05-07T11:24:52.253Z,24.53
2019-05-07T11:26:27.026Z,24.60
2019-05-07T11:28:02.823Z,26.87
2019-05-07T11:29:37.345Z,27.40
2019-05-07T11:31:12.371Z,26.87
2019-05-07T11:32:47.039Z,29.97
2019-05-07T11:34:22.059Z,25.63
2019-05-07T11:35:57.124Z,28.53
2019-05-07T11:37:31.883Z,30.03
2019-05-07T11:39:08.443Z,28.33
2019-05-07T11:40:43.735Z,28.27
2019-05-07T11:42:42.650Z,28.90
2019-05-07T11:44:22.983Z,30.07
2019-05-07T11:46:04.924Z,32.00
2019-05-07T11:47:39.725Z,32.17
2019-05-07T11:49:22.746Z,27.23
2019-05-07T11:51:08.709Z,25.70
2019-05-07T11:52:47.834Z,23.67
2019-05-07T11:54:22.613Z,24.23
2019-05-07T11:55:57.401Z,24.33
2019-05-07T11:57:32.486Z,25.37
2019-05-07T11:59:07.091Z,22.40
2019-05-07T12:00:50.217Z,25.17
2019-05-07T12:02:24.990Z,19.90
2019-05-07T12:03:59.461Z,22.27
2019-05-07T12:05:34.115Z,23.83
2019-05-07T12:07:08.957Z,21.93
2019-05-07T12:08:51.321Z,24.03
2019-05-07T12:10:19.497Z,21.00
2019-05-07T12:11:53.853Z,22.63
2019-05-07T12:13:28.595Z,22.97
2019-05-07T12:15:03.396Z,20.67
2019-05-07T12:16:38.173Z,19.17
2019-05-07T12:18:12.946Z,18.00
2019-05-07T12:19:47.769Z,17.87
2019-05-07T12:21:24.288Z,18.70
2019-05-07T12:22:59.063Z,18.77
2019-05-07T12:24:33.851Z,17.73
2019-05-07T12:26:08.638Z,18.07
2019-05-07T12:27:43.618Z,16.37
2019-05-07T12:29:18.403Z,18.07
2019-05-07T12:31:05.349Z,18.53
2019-05-07T12:32:47.251Z,17.00
2019-05-07T12:34:25.723Z,17.70
2019-05-07T12:36:01.989Z,19.33
2019-05-07T12:37:36.289Z,17.00
2019-05-07T12:39:12.761Z,16.33
2019-05-07T12:40:47.309Z,24.03
2019-05-07T12:42:22.366Z,18.63
2019-05-07T12:43:57.724Z,16.23
2019-05-07T12:45:32.504Z,15.50
2019-05-07T12:47:07.847Z,15.57
2019-05-07T12:48:42.882Z,16.40
2019-05-07T12:50:17.804Z,15.53
2019-05-07T12:52:12.682Z,16.37
2019-05-07T12:53:52.490Z,14.23
2019-05-07T12:55:42.727Z,13.43
2019-05-07T12:57:17.081Z,13.27
2019-05-07T12:58:51.909Z,14.00
2019-05-07T13:00:44.250Z,14.70
2019-05-07T13:02:40.638Z,13.97
2019-05-07T13:04:18.690Z,13.03
2019-05-07T13:05:53.839Z,13.50
2019-05-07T13:08:03.009Z,13.90
2019-05-07T13:09:37.407Z,12.10
2019-05-07T13:11:13.236Z,13.00
2019-05-07T13:12:48.159Z,11.60
2019-05-07T13:14:22.554Z,11.63
2019-05-07T13:15:56.917Z,10.80
2019-05-07T13:17:31.270Z,12.13
2019-05-07T13:19:05.781Z,10.70
2019-05-07T13:20:40.225Z,10.43
2019-05-07T13:22:14.667Z,10.00
2019-05-07T13:23:49.437Z,10.43
2019-05-07T13:25:28.332Z,10.57
2019-05-07T13:27:03.216Z,11.00
2019-05-07T13:28:37.834Z,10.97
2019-05-07T13:30:13.446Z,11.00
2019-05-07T13:31:53.856Z,9.20
2019-05-07T13:33:28.165Z,8.70
2019-05-07T13:35:02.914Z,8.13
2019-05-07T13:36:40.091Z,8.00
2019-05-07T13:38:46.039Z,8.97
2019-05-07T13:40:42.435Z,8.07
2019-05-07T13:42:34.901Z,6.90
2019-05-07T13:44:26.742Z,7.00
2019-05-07T13:46:06.657Z,7.30
2019-05-07T13:47:42.701Z,6.87
2019-05-07T13:49:17.560Z,7.20
2019-05-07T13:50:52.041Z,6.77
2019-05-07T13:52:26.694Z,6.83
2019-05-07T13:54:02.112Z,6.70
2019-05-07T13:55:37.575Z,6.87
2019-05-07T13:57:12.189Z,7.20
2019-05-07T13:58:47.366Z,7.10
2019-05-07T14:00:29.275Z,6.73
2019-05-07T14:02:07.611Z,6.80
2019-05-07T14:03:42.545Z,8.13
2019-05-07T14:05:17.469Z,6.83
2019-05-07T14:06:52.949Z,6.90
2019-05-07T14:08:31.998Z,6.13
2019-05-07T14:10:06.561Z,6.20
2019-05-07T14:11:42.310Z,5.90
2019-05-07T14:13:17.638Z,6.07
2019-05-07T14:14:53.214Z,5.63
2019-05-07T14:16:27.737Z,5.67
2019-05-07T14:18:02.272Z,5.63
2019-05-07T14:19:37.089Z,5.60
2019-05-07T14:21:12.981Z,5.33
2019-05-07T14:22:47.689Z,6.23
2019-05-07T14:24:22.679Z,5.60
2019-05-07T14:25:57.065Z,6.33
2019-05-07T14:27:32.147Z,5.17
2019-05-07T14:29:07.429Z,5.70
2019-05-07T14:30:42.152Z,4.90
2019-05-07T14:32:35.711Z,5.50
2019-05-07T14:34:19.651Z,5.13
2019-05-07T14:36:06.269Z,5.53
2019-05-07T14:37:44.160Z,6.03
2019-05-07T14:39:18.585Z,4.77
2019-05-07T14:40:53.054Z,5.10
2019-05-07T14:42:33.366Z,5.07
2019-05-07T14:44:13.301Z,5.90
2019-05-07T14:45:47.730Z,4.97
2019-05-07T14:47:22.892Z,4.80
2019-05-07T14:48:58.065Z,4.90
2019-05-07T14:50:33.222Z,4.40
2019-05-07T14:52:08.354Z,5.03
2019-05-07T14:53:43.881Z,4.60
2019-05-07T14:55:18.787Z,5.40
2019-05-07T14:56:53.784Z,4.93
2019-05-07T14:58:28.627Z,5.00
2019-05-07T15:00:03.687Z,5.43
2019-05-07T15:01:38.878Z,5.30
2019-05-07T15:03:14.367Z,5.33
2019-05-07T15:04:49.275Z,5.30
2019-05-07T15:06:24.240Z,4.93
2019-05-07T15:08:10.353Z,4.97
2019-05-07T15:09:35.891Z,4.13
2019-05-07T15:11:11.018Z,4.50
2019-05-07T15:12:46.457Z,3.73
2019-05-07T15:14:21.529Z,4.93
2019-05-07T15:15:56.449Z,5.23
2019-05-07T15:17:42.003Z,5.80
2019-05-07T15:19:16.931Z,5.10
2019-05-07T15:20:52.549Z,4.53
2019-05-07T15:22:52.652Z,4.87
2019-05-07T15:24:27.967Z,5.40
2019-05-07T15:26:04.879Z,7.17
2019-05-07T15:27:42.019Z,5.47
2019-05-07T15:29:16.519Z,5.77
2019-05-07T15:31:00.065Z,5.87
2019-05-07T15:32:34.986Z,5.47
2019-05-07T15:34:12.245Z,5.47
2019-05-07T15:35:46.559Z,5.97
2019-05-07T15:37:21.296Z,5.17
2019-05-07T15:38:55.654Z,6.07
2019-05-07T15:40:30.283Z,5.53
2019-05-07T15:42:04.715Z,5.10
2019-05-07T15:43:39.089Z,5.07
2019-05-07T15:45:13.926Z,4.93
2019-05-07T15:46:48.353Z,5.87
2019-05-07T15:48:23.061Z,4.40
2019-05-07T15:49:57.677Z,5.10
2019-05-07T15:51:32.788Z,5.00
2019-05-07T15:53:15.938Z,5.77
2019-05-07T15:54:52.260Z,5.90
2019-05-07T15:56:26.809Z,5.20
2019-05-07T15:58:02.763Z,5.63
2019-05-07T15:59:37.670Z,9.93
2019-05-07T16:01:12.838Z,10.33
2019-05-07T16:02:53.542Z,10.60
2019-05-07T16:04:26.124Z,10.63
2019-05-07T16:06:03.572Z,10.23
2019-05-07T16:07:37.181Z,10.77
2019-05-07T16:09:12.925Z,11.47
2019-05-07T16:10:47.896Z,10.93
2019-05-07T16:12:22.841Z,12.03
2019-05-07T16:14:17.218Z,11.80
2019-05-07T16:15:52.860Z,12.87
2019-05-07T16:17:32.896Z,11.70
2019-05-07T16:19:14.676Z,12.37
2019-05-07T16:20:49.113Z,10.20
2019-05-07T16:22:28.586Z,12.07
2019-05-07T16:24:04.037Z,11.20
2019-05-07T16:25:38.605Z,10.60
2019-05-07T16:27:12.967Z,10.70
2019-05-07T16:28:47.337Z,9.70
2019-05-07T16:30:22.845Z,10.10
2019-05-07T16:31:57.378Z,10.50
2019-05-07T16:33:32.025Z,12.20
2019-05-07T16:35:08.567Z,10.90
2019-05-07T16:36:43.216Z,12.73
2019-05-07T16:38:18.132Z,11.53
2019-05-07T16:39:52.799Z,11.00
2019-05-07T16:41:27.237Z,11.53
2019-05-07T16:43:02.768Z,10.73
2019-05-07T16:44:37.566Z,11.13
2019-05-07T16:46:11.991Z,10.10
2019-05-07T16:47:46.383Z,9.27
2019-05-07T16:49:22.370Z,11.30
2019-05-07T16:50:56.893Z,10.23
2019-05-07T16:52:32.475Z,11.20
2019-05-07T16:54:07.845Z,10.93
2019-05-07T16:55:43.000Z,11.20
2019-05-07T16:57:36.356Z,10.27
2019-05-07T16:59:12.603Z,11.33
2019-05-07T17:00:49.666Z,10.97
2019-05-07T17:02:27.356Z,11.13
2019-05-07T17:04:02.805Z,13.27
2019-05-07T17:05:37.271Z,11.10
2019-05-07T17:07:13.589Z,12.53
2019-05-07T17:08:52.130Z,12.67
2019-05-07T17:10:26.783Z,11.57
2019-05-07T17:12:03.291Z,14.10
2019-05-07T17:13:38.069Z,12.33
2019-05-07T17:15:13.020Z,12.23
2019-05-07T17:16:47.441Z,14.40
2019-05-07T17:18:22.267Z,13.43
2019-05-07T17:19:56.701Z,13.30
2019-05-07T17:21:32.446Z,12.63
2019-05-07T17:23:07.150Z,14.33
2019-05-07T17:24:42.248Z,12.93
2019-05-07T17:26:17.178Z,12.93
2019-05-07T17:27:52.178Z,12.83
2019-05-07T17:29:27.263Z,12.83
2019-05-07T17:31:03.109Z,12.93
2019-05-07T17:32:37.774Z,15.10
2019-05-07T17:34:12.153Z,13.60
2019-05-07T17:35:46.791Z,13.73
2019-05-07T17:37:22.579Z,12.83
2019-05-07T17:38:57.034Z,14.57
2019-05-07T17:40:32.099Z,14.73
2019-05-07T17:42:06.642Z,15.13
2019-05-07T17:43:41.028Z,14.17
2019-05-07T17:45:15.497Z,15.10
2019-05-07T17:46:51.763Z,13.60
2019-05-07T17:48:26.558Z,15.23
2019-05-07T17:50:02.146Z,15.33
2019-05-07T17:51:44.943Z,15.60
2019-05-07T17:53:19.440Z,13.80
2019-05-07T17:54:53.830Z,14.33
2019-05-07T17:56:28.275Z,13.50
2019-05-07T17:58:02.785Z,14.80
2019-05-07T17:59:37.483Z,14.13
2019-05-07T18:01:12.114Z,14.00
2019-05-07T18:03:08.405Z,13.07
2019-05-07T18:04:51.110Z,14.67
2019-05-07T18:06:21.761Z,12.70
2019-05-07T18:07:56.118Z,12.63
2019-05-07T18:09:31.885Z,12.20
2019-05-07T18:11:16.746Z,14.83
2019-05-07T18:12:42.614Z,13.20
2019-05-07T18:14:17.026Z,13.10
2019-05-07T18:15:52.061Z,12.97
2019-05-07T18:17:48.598Z,13.63
2019-05-07T18:19:23.021Z,14.40
2019-05-07T18:20:58.002Z,13.33
2019-05-07T18:22:32.659Z,12.87
2019-05-07T18:24:13.748Z,14.10
2019-05-07T18:25:43.222Z,12.83
2019-05-07T18:27:24.653Z,12.73
2019-05-07T18:28:59.546Z,14.10
2019-05-07T18:30:34.057Z,13.57
2019-05-07T18:32:08.544Z,15.70
2019-05-07T18:33:55.395Z,14.47
2019-05-07T18:35:29.766Z,14.40
2019-05-07T18:37:04.301Z,13.83
2019-05-07T18:38:39.198Z,14.77
2019-05-07T18:40:13.566Z,14.20
2019-05-07T18:41:47.930Z,13.77
2019-05-07T18:43:22.785Z,14.23
2019-05-07T18:44:57.189Z,13.03
2019-05-07T18:46:32.770Z,13.20
2019-05-07T18:48:07.329Z,14.70
2019-05-07T18:49:42.900Z,14.43
2019-05-07T18:51:18.061Z,15.47
2019-05-07T18:52:52.542Z,16.00
2019-05-07T18:54:31.251Z,15.67
2019-05-07T18:56:03.471Z,17.87
2019-05-07T18:57:37.910Z,16.00
2019-05-07T18:59:12.829Z,16.40
2019-05-07T19:00:51.900Z,16.63
2019-05-07T19:02:26.805Z,15.57
2019-05-07T19:04:02.068Z,17.40
2019-05-07T19:05:36.737Z,18.03
2019-05-07T19:07:13.091Z,18.17
2019-05-07T19:08:47.762Z,18.93
2019-05-07T19:10:22.482Z,17.10
2019-05-07T19:11:56.928Z,16.57
2019-05-07T19:13:32.637Z,17.67
2019-05-07T19:15:07.642Z,17.37
2019-05-07T19:16:43.075Z,16.40
2019-05-07T19:18:17.597Z,15.63
2019-05-07T19:19:52.496Z,17.80
2019-05-07T19:21:27.151Z,18.07
2019-05-07T19:23:02.671Z,17.40
2019-05-07T19:24:45.174Z,18.13
2019-05-07T19:26:13.831Z,17.55
2019-05-07T19:27:48.191Z,17.93
2019-05-07T19:29:23.302Z,17.53
2019-05-07T19:30:58.374Z,16.50
2019-05-07T19:32:32.730Z,16.13
2019-05-07T19:34:07.167Z,17.60
2019-05-07T19:35:41.926Z,15.83
2019-05-07T19:37:16.383Z,17.73
2019-05-07T19:38:52.599Z,18.40
2019-05-07T19:40:27.621Z,16.50
2019-05-07T19:42:02.558Z,16.97
2019-05-07T19:43:37.154Z,18.23
2019-05-07T19:45:12.812Z,19.23
2019-05-07T19:46:47.304Z,18.37
2019-05-07T19:48:23.140Z,18.80
2019-05-07T19:49:57.756Z,19.60
2019-05-07T19:51:32.227Z,18.65
2019-05-07T19:53:06.607Z,19.00
2019-05-07T19:54:44.346Z,18.55
2019-05-07T19:56:21.866Z,23.00
2019-05-07T19:58:00.174Z,20.10
2019-05-07T19:59:34.538Z,21.50
2019-05-07T20:01:11.975Z,19.75
2019-05-07T20:02:47.886Z,21.20
2019-05-07T20:04:22.260Z,21.45
2019-05-07T20:05:57.177Z,19.23
2019-05-07T20:07:32.328Z,20.23
2019-05-07T20:09:12.431Z,18.30
2019-05-07T20:10:52.198Z,20.17
2019-05-07T20:12:26.648Z,20.83
2019-05-07T20:14:01.989Z,18.93
2019-05-07T20:15:38.666Z,20.90
2019-05-07T20:17:13.082Z,17.67
2019-05-07T20:18:48.116Z,23.63
2019-05-07T20:20:22.581Z,20.87
2019-05-07T20:21:56.932Z,22.80
2019-05-07T20:23:32.670Z,24.17
2019-05-07T20:25:18.559Z,22.00
2019-05-07T20:26:43.746Z,23.77
2019-05-07T20:28:18.206Z,21.13
2019-05-07T20:29:52.852Z,21.03
2019-05-07T20:31:27.564Z,23.30
2019-05-07T20:33:03.083Z,19.23
2019-05-07T20:34:37.574Z,20.10
2019-05-07T20:36:12.026Z,20.90
2019-05-07T20:37:46.722Z,17.95
2019-05-07T20:39:23.107Z,19.77
2019-05-07T20:40:57.194Z,19.30
2019-05-07T20:42:32.401Z,19.42
2019-05-07T20:44:07.393Z,19.40
2019-05-07T20:45:42.601Z,19.77
2019-05-07T20:47:17.347Z,19.23
2019-05-07T20:48:52.616Z,18.57
2019-05-07T20:50:27.454Z,20.97
2019-05-07T20:52:02.131Z,19.40
2019-05-07T20:53:57.612Z,20.90
2019-05-07T20:55:42.954Z,19.20
2019-05-07T20:57:22.703Z,20.25
2019-05-07T20:58:57.235Z,18.60
2019-05-07T21:00:32.600Z,18.80
2019-05-07T21:02:07.161Z,19.90